Time;durP1;ratioP1;P1;durP2;ratioP2;P2;SDS_P1;SDS_P2;PMS_P1;PMS_P2;Temp;Humidity;BMP_temperature;BMP_pressure;BME280_temperature;BME280_humidity;BME280_pressure;Samples;Min_cycle;Max_cycle;Signal;HPM_P1;HPM_P2
2023/07/10 00:02:03;;;;;;;10.20;8.80;;;;;;;16.88;63.53;100638.31;129829;1276;115087;-62
2023/07/10 00:05:16;;;;;;;9.60;7.40;;;;;;;16.84;63.60;100638.60;129991;1257;114780;-62
2023/07/10 00:08:18;;;;;;;10.70;7.70;;;;;;;16.80;63.58;100640.34;129779;1270;126641;-63
2023/07/10 00:11:29;;;;;;;13.10;8.20;;;;;;;16.75;63.73;100641.02;130026;1276;115161;-61
2023/07/10 00:14:33;;;;;;;11.10;7.60;;;;;;;16.71;63.94;100633.39;130082;1257;114699;-62
2023/07/10 00:17:36;;;;;;;9.30;7.90;;;;;;;16.67;64.26;100633.45;130003;1257;114966;-63
2023/07/10 00:20:38;;;;;;;11.10;7.10;;;;;;;16.63;64.25;100631.20;130114;1264;114786;-61
2023/07/10 00:23:41;;;;;;;9.80;7.10;;;;;;;16.59;64.44;100634.37;130085;1264;116250;-61
2023/07/10 00:26:43;;;;;;;12.30;7.10;;;;;;;16.55;64.53;100635.70;130106;1267;114875;-61
2023/07/10 00:29:45;;;;;;;10.70;7.80;;;;;;;16.52;64.85;100635.92;129886;1260;115233;-62
2023/07/10 00:32:52;;;;;;;11.30;7.70;;;;;;;16.48;65.04;100634.20;130338;1256;115208;-63
2023/07/10 00:35:55;;;;;;;11.70;7.80;;;;;;;16.44;65.40;100629.64;129863;1261;114882;-62
2023/07/10 00:39:01;;;;;;;9.60;7.60;;;;;;;16.42;65.37;100629.10;130122;1267;114875;-62
2023/07/10 00:42:17;;;;;;;10.30;8.00;;;;;;;16.38;65.41;100621.55;130103;1276;127995;-62
2023/07/10 00:45:20;;;;;;;10.10;7.50;;;;;;;16.35;65.66;100617.80;130207;1260;115153;-63
2023/07/10 00:48:25;;;;;;;9.80;7.60;;;;;;;16.33;65.69;100621.04;130103;1257;115170;-62
2023/07/10 00:51:34;;;;;;;8.50;6.80;;;;;;;16.30;65.79;100616.95;129999;1268;114734;-62
2023/07/10 00:54:39;;;;;;;11.40;7.70;;;;;;;16.25;65.79;100615.79;129934;1259;115153;-61
2023/07/10 00:57:42;;;;;;;9.90;8.00;;;;;;;16.21;65.95;100619.52;130058;1254;128546;-61
2023/07/10 01:01:05;;;;;;;14.20;9.90;;;;;;;16.17;65.97;100622.63;130139;1257;114699;-61
2023/07/10 01:04:08;;;;;;;12.20;9.20;;;;;;;16.13;66.24;100617.86;129994;1267;114792;-61
2023/07/10 01:07:13;;;;;;;15.10;8.00;;;;;;;16.09;66.44;100618.67;130073;1257;114702;-63
2023/07/10 01:10:15;;;;;;;8.20;6.60;;;;;;;16.05;66.27;100614.07;130082;1260;114821;-62
2023/07/10 01:13:17;;;;;;;11.40;7.00;;;;;;;16.02;66.52;100610.50;130007;1266;114862;-62
2023/07/10 01:16:21;;;;;;;10.40;7.50;;;;;;;15.99;66.67;100611.42;130383;1276;114832;-62
2023/07/10 01:19:24;;;;;;;12.70;8.20;;;;;;;15.97;66.99;100610.31;130174;1257;114679;-61
2023/07/10 01:22:29;;;;;;;13.00;8.20;;;;;;;15.94;66.96;100604.22;130184;1266;114721;-62
2023/07/10 01:25:45;;;;;;;8.10;6.70;;;;;;;15.91;67.00;100601.52;130192;1257;114693;-62
2023/07/10 01:28:49;;;;;;;8.10;6.80;;;;;;;15.88;67.29;100606.41;130414;1255;114692;-62
2023/07/10 01:31:54;;;;;;;10.50;7.60;;;;;;;15.86;67.35;100605.29;129666;1273;127767;-62
2023/07/10 01:34:59;;;;;;;11.50;8.40;;;;;;;15.84;67.61;100602.87;129788;1261;115102;-62
2023/07/10 01:38:01;;;;;;;9.00;7.40;;;;;;;15.81;67.33;100605.16;130121;1276;114775;-62
2023/07/10 01:41:38;;;;;;;9.90;6.90;;;;;;;15.80;67.47;100601.84;130066;1256;115128;-62
2023/07/10 01:44:43;;;;;;;11.00;6.40;;;;;;;15.79;67.66;100602.64;130030;1261;114725;-62
2023/07/10 01:47:45;;;;;;;11.50;6.80;;;;;;;15.77;67.62;100603.14;129829;1273;127758;-62
2023/07/10 01:50:47;;;;;;;12.00;6.90;;;;;;;15.76;67.71;100604.27;130185;1256;114817;-62
2023/07/10 01:53:50;;;;;;;8.80;7.20;;;;;;;15.74;67.75;100602.05;130078;1254;114772;-61
2023/07/10 01:56:53;;;;;;;9.80;7.40;;;;;;;15.74;67.79;100602.27;130162;1257;114849;-61
2023/07/10 01:59:55;;;;;;;11.80;6.80;;;;;;;15.72;67.83;100600.22;130144;1256;115352;-61
2023/07/10 02:02:58;;;;;;;8.60;6.80;;;;;;;15.71;68.04;100596.89;129969;1276;115163;-62
2023/07/10 02:06:00;;;;;;;8.30;6.70;;;;;;;15.70;68.17;100590.79;130034;1267;114833;-62
2023/07/10 02:09:04;;;;;;;10.30;7.00;;;;;;;15.69;68.22;100591.02;130140;1254;114772;-61
2023/07/10 02:12:07;;;;;;;9.90;7.30;;;;;;;15.68;68.25;100586.23;129886;1257;115143;-61
2023/07/10 02:15:10;;;;;;;9.50;6.70;;;;;;;15.68;68.10;100583.04;130224;1256;114718;-61
2023/07/10 02:18:12;;;;;;;8.50;6.30;;;;;;;15.66;68.28;100584.56;130070;1269;114837;-62
2023/07/10 02:21:14;;;;;;;10.50;6.60;;;;;;;15.65;68.36;100581.95;130360;1276;114770;-62
2023/07/10 02:24:17;;;;;;;9.20;7.20;;;;;;;15.64;68.17;100581.81;130283;1257;114683;-62
2023/07/10 02:27:19;;;;;;;8.70;6.40;;;;;;;15.63;68.27;100577.55;129955;1270;127053;-62
2023/07/10 02:30:22;;;;;;;7.80;6.70;;;;;;;15.62;68.42;100581.95;129906;1254;115075;-62
2023/07/10 02:33:24;;;;;;;9.00;6.30;;;;;;;15.61;68.41;100582.73;130172;1257;115166;-62
2023/07/10 02:36:28;;;;;;;10.60;6.70;;;;;;;15.61;68.26;100581.88;130105;1257;115907;-62
2023/07/10 02:39:32;;;;;;;11.70;8.20;;;;;;;15.60;68.46;100579.90;130090;1253;114731;-62
2023/07/10 02:42:34;;;;;;;9.30;6.60;;;;;;;15.60;68.49;100584.23;129755;1270;114761;-62
2023/07/10 02:45:37;;;;;;;9.10;6.50;;;;;;;15.60;68.51;100588.52;130015;1259;114757;-61
2023/07/10 02:48:39;;;;;;;10.30;7.70;;;;;;;15.62;68.67;100595.65;130212;1254;114845;-62
2023/07/10 02:51:41;;;;;;;9.80;6.20;;;;;;;15.62;68.55;100592.04;130029;1254;115157;-63
2023/07/10 02:54:44;;;;;;;8.10;6.00;;;;;;;15.64;68.37;100592.98;129850;1260;115295;-62
2023/07/10 02:57:46;;;;;;;8.00;6.20;;;;;;;15.68;68.45;100590.41;129867;1260;114783;-61
2023/07/10 03:00:56;;;;;;;7.00;6.30;;;;;;;15.72;68.46;100590.15;130057;1271;114817;-62
2023/07/10 03:03:58;;;;;;;8.00;6.00;;;;;;;15.73;68.40;100591.84;129840;1277;128597;-63
2023/07/10 03:07:00;;;;;;;7.50;5.90;;;;;;;15.74;68.22;100590.69;130079;1259;114824;-62
2023/07/10 03:10:04;;;;;;;11.00;6.40;;;;;;;15.75;68.45;100593.67;130185;1254;114684;-62
2023/07/10 03:13:06;;;;;;;8.40;6.30;;;;;;;15.76;68.27;100595.77;129849;1263;114737;-62
2023/07/10 03:16:12;;;;;;;7.60;5.90;;;;;;;15.79;68.19;100600.84;129908;1258;114737;-62
2023/07/10 03:19:14;;;;;;;9.50;6.10;;;;;;;15.82;68.27;100597.41;130160;1270;115119;-62
2023/07/10 03:22:16;;;;;;;8.00;6.10;;;;;;;15.84;68.28;100590.09;130098;1257;114824;-62
2023/07/10 03:25:19;;;;;;;10.00;6.00;;;;;;;15.86;68.39;100590.52;130117;1257;114826;-62
2023/07/10 03:28:23;;;;;;;11.20;6.00;;;;;;;15.86;68.47;100584.17;130135;1257;116409;-61
2023/07/10 03:31:25;;;;;;;8.00;6.30;;;;;;;15.88;68.27;100585.52;129826;1257;356459;-62
2023/07/10 03:34:28;;;;;;;11.20;6.00;;;;;;;15.91;67.92;100584.77;130224;1256;115336;-61
2023/07/10 03:37:30;;;;;;;6.20;5.50;;;;;;;15.96;67.90;100583.54;130124;1257;115650;-61
2023/07/10 03:40:32;;;;;;;9.10;6.40;;;;;;;16.02;67.74;100587.08;130189;1267;114682;-61
2023/07/10 03:43:34;;;;;;;8.50;6.50;;;;;;;16.08;67.95;100585.41;130139;1276;114738;-61
2023/07/10 03:46:36;;;;;;;8.70;5.80;;;;;;;16.13;67.69;100584.88;129992;1276;115198;-61
2023/07/10 03:49:39;;;;;;;7.50;5.80;;;;;;;16.18;67.39;100587.06;130031;1254;114827;-61
2023/07/10 03:52:41;;;;;;;8.40;5.70;;;;;;;16.24;67.45;100584.52;130048;1257;114705;-63
2023/07/10 03:55:48;;;;;;;9.20;5.90;;;;;;;16.30;67.48;100581.04;129955;1257;114788;-62
2023/07/10 03:58:50;;;;;;;7.30;5.90;;;;;;;16.35;67.61;100575.13;129958;1270;115645;-62
2023/07/10 04:01:53;;;;;;;7.60;5.60;;;;;;;16.38;67.67;100572.87;130121;1254;114791;-62
2023/07/10 04:04:55;;;;;;;9.50;6.50;;;;;;;16.42;67.37;100570.49;130183;1257;114736;-62
2023/07/10 04:07:57;;;;;;;8.40;6.10;;;;;;;16.44;67.31;100569.26;130217;1276;115243;-63
2023/07/10 04:11:03;;;;;;;9.90;6.40;;;;;;;16.47;67.15;100566.89;130146;1256;114996;-63
2023/07/10 04:14:06;;;;;;;11.50;6.50;;;;;;;16.52;66.89;100567.20;130295;1276;115365;-61
2023/07/10 04:17:08;;;;;;;8.80;5.90;;;;;;;16.60;66.85;100570.52;130119;1257;116469;-61
2023/07/10 04:20:10;;;;;;;11.80;6.30;;;;;;;16.66;66.72;100565.16;130035;1267;115083;-62
2023/07/10 04:23:13;;;;;;;9.10;6.30;;;;;;;16.73;66.46;100562.89;130033;1270;114891;-60
2023/07/10 04:26:24;;;;;;;13.40;6.70;;;;;;;16.80;66.42;100560.92;130128;1258;115820;-62
2023/07/10 04:29:26;;;;;;;8.40;5.90;;;;;;;16.88;66.14;100558.54;130114;1254;114788;-63
2023/07/10 04:32:28;;;;;;;6.90;5.50;;;;;;;16.98;66.04;100559.00;130086;1257;114773;-62
2023/07/10 04:35:30;;;;;;;14.70;6.00;;;;;;;17.07;65.85;100563.58;130414;1268;114866;-62
2023/07/10 04:38:36;;;;;;;7.60;5.80;;;;;;;17.18;65.59;100556.77;129863;1276;114798;-61
2023/07/10 04:41:39;;;;;;;9.10;6.20;;;;;;;17.30;65.46;100554.83;130033;1275;127911;-62
2023/07/10 04:44:41;;;;;;;9.50;6.20;;;;;;;17.45;65.23;100552.16;130408;1256;115318;-62
2023/07/10 04:47:43;;;;;;;9.40;6.20;;;;;;;17.77;65.42;100548.65;130070;1256;114868;-61
2023/07/10 04:50:47;;;;;;;11.40;5.90;;;;;;;18.63;65.56;100548.01;130120;1268;114755;-61
2023/07/10 04:53:50;;;;;;;11.10;6.60;;;;;;;19.82;64.89;100555.73;129797;1262;115259;-62
2023/07/10 04:56:52;;;;;;;11.50;6.00;;;;;;;21.02;63.67;100563.02;130115;1275;115151;-61
2023/07/10 04:59:54;;;;;;;8.80;5.80;;;;;;;22.30;62.85;100561.17;130021;1276;114789;-61
2023/07/10 05:02:56;;;;;;;9.20;5.70;;;;;;;23.57;60.98;100560.36;130085;1257;114786;-61
2023/07/10 05:05:59;;;;;;;8.40;5.50;;;;;;;24.71;59.35;100556.55;130067;1254;115198;-62
2023/07/10 05:09:01;;;;;;;11.10;5.60;;;;;;;25.73;56.72;100562.14;130210;1266;114766;-62
2023/07/10 05:12:04;;;;;;;9.10;5.50;;;;;;;26.57;54.82;100566.42;130111;1256;114814;-61
2023/07/10 05:15:07;;;;;;;9.80;5.40;;;;;;;27.33;52.94;100562.59;129896;1276;114720;-61
2023/07/10 05:18:09;;;;;;;10.60;5.90;;;;;;;28.05;52.07;100560.92;130300;1256;115256;-62
2023/07/10 05:21:11;;;;;;;9.50;5.10;;;;;;;28.67;50.02;100556.77;130333;1256;114725;-61
2023/07/10 05:24:14;;;;;;;7.60;5.70;;;;;;;28.52;47.68;100553.70;130410;1254;115314;-63
2023/07/10 05:27:16;;;;;;;6.70;5.90;;;;;;;28.06;47.33;100553.66;130081;1276;115166;-61
2023/07/10 05:30:18;;;;;;;6.90;5.70;;;;;;;27.60;47.46;100549.12;130120;1256;115128;-61
2023/07/10 05:33:21;;;;;;;7.80;6.00;;;;;;;27.23;47.16;100551.59;130125;1254;114722;-60
2023/07/10 05:36:23;;;;;;;7.50;5.60;;;;;;;26.96;47.04;100554.94;130245;1273;114763;-62
2023/07/10 05:39:25;;;;;;;7.80;5.80;;;;;;;26.78;46.41;100552.14;130101;1257;114746;-62
2023/07/10 05:42:27;;;;;;;8.20;7.10;;;;;;;26.53;46.37;100550.40;129960;1276;115403;-61
2023/07/10 05:45:29;;;;;;;6.70;6.00;;;;;;;26.33;46.70;100549.20;130129;1276;114778;-61
2023/07/10 05:48:32;;;;;;;10.00;6.00;;;;;;;26.08;46.16;100551.36;129959;1256;116115;-61
2023/07/10 05:51:34;;;;;;;13.60;6.20;;;;;;;25.77;46.44;100547.39;130148;1254;114769;-62
2023/07/10 05:54:36;;;;;;;12.90;6.70;;;;;;;25.56;46.55;100539.35;130012;1276;114658;-61
2023/07/10 05:57:39;;;;;;;10.50;7.10;;;;;;;25.33;46.53;100537.23;130256;1257;114753;-62
2023/07/10 06:00:42;;;;;;;16.10;6.80;;;;;;;25.11;46.58;100536.27;130245;1275;115115;-61
2023/07/10 06:03:45;;;;;;;10.80;7.30;;;;;;;25.07;47.04;100534.05;130173;1275;128892;-61
2023/07/10 06:06:47;;;;;;;11.00;7.40;;;;;;;25.18;47.38;100537.05;130185;1269;115205;-61
2023/07/10 06:09:49;;;;;;;14.10;7.50;;;;;;;25.27;47.27;100530.35;130280;1253;115080;-61
2023/07/10 06:12:52;;;;;;;9.20;6.90;;;;;;;25.23;46.74;100521.36;129738;1254;115090;-61
2023/07/10 06:15:57;;;;;;;10.80;8.00;;;;;;;25.15;46.36;100519.02;129980;1254;114782;-61
2023/07/10 06:18:59;;;;;;;12.70;8.30;;;;;;;25.01;46.30;100517.04;129751;1262;114887;-62
2023/07/10 06:22:10;;;;;;;11.50;7.10;;;;;;;24.88;46.46;100519.50;130032;1256;114801;-61
2023/07/10 06:25:13;;;;;;;10.50;7.30;;;;;;;24.80;46.91;100521.52;129844;1275;115249;-61
2023/07/10 06:28:15;;;;;;;13.70;8.80;;;;;;;24.67;46.93;100521.23;130202;1254;114697;-62
2023/07/10 06:31:17;;;;;;;10.50;8.40;;;;;;;24.45;46.55;100517.29;130214;1255;114743;-61
2023/07/10 06:34:19;;;;;;;10.60;7.60;;;;;;;24.24;46.94;100517.42;130127;1275;114702;-61
2023/07/10 06:37:22;;;;;;;9.50;7.00;;;;;;;24.08;47.37;100522.72;129999;1270;115436;-61
2023/07/10 06:40:24;;;;;;;12.70;7.80;;;;;;;24.01;47.68;100527.27;130163;1272;114732;-62
2023/07/10 06:43:27;;;;;;;10.10;8.30;;;;;;;23.92;47.91;100538.09;130083;1269;127854;-61
2023/07/10 06:46:30;;;;;;;18.90;11.50;;;;;;;23.79;48.29;100537.15;130091;1253;115159;-63
2023/07/10 06:49:32;;;;;;;11.90;8.70;;;;;;;23.74;48.46;100533.73;130053;1269;114711;-62
2023/07/10 06:52:37;;;;;;;9.90;8.10;;;;;;;23.66;48.55;100528.45;130027;1270;114743;-61
2023/07/10 06:55:40;;;;;;;12.80;9.70;;;;;;;23.59;48.93;100529.58;130132;1257;114717;-62
2023/07/10 06:58:43;;;;;;;11.80;8.30;;;;;;;23.61;49.34;100537.52;129824;1259;115133;-70
2023/07/10 07:01:45;;;;;;;9.00;7.80;;;;;;;23.66;49.79;100539.60;130470;1257;115250;-68
2023/07/10 07:04:47;;;;;;;10.90;8.00;;;;;;;23.70;50.14;100543.90;130494;1253;114782;-68
2023/07/10 07:07:49;;;;;;;13.60;9.20;;;;;;;23.75;50.21;100541.25;130475;1257;115179;-68
2023/07/10 07:10:52;;;;;;;15.20;8.70;;;;;;;23.82;50.19;100538.91;130452;1254;115314;-68
2023/07/10 07:13:55;;;;;;;15.60;8.10;;;;;;;23.95;50.30;100544.84;130324;1269;114807;-68
2023/07/10 07:16:57;;;;;;;12.70;8.90;;;;;;;24.15;50.38;100542.17;130395;1256;115039;-69
2023/07/10 07:19:59;;;;;;;15.70;8.50;;;;;;;24.35;50.32;100536.80;130298;1261;127535;-70
2023/07/10 07:23:01;;;;;;;19.30;8.80;;;;;;;24.63;50.39;100534.59;130318;1276;114804;-69
2023/07/10 07:26:03;;;;;;;10.90;8.60;;;;;;;25.05;50.20;100536.79;130426;1257;115220;-71
2023/07/10 07:29:05;;;;;;;18.90;9.40;;;;;;;25.80;50.11;100536.35;130071;1254;114913;-70
2023/07/10 07:32:11;;;;;;;9.90;8.20;;;;;;;26.40;49.35;100526.92;130332;1257;115410;-63
2023/07/10 07:35:14;;;;;;;12.50;8.30;;;;;;;26.94;48.68;100516.83;130097;1267;114722;-64
2023/07/10 07:38:21;;;;;;;10.80;7.70;;;;;;;27.69;48.55;100511.16;130433;1254;115135;-62
2023/07/10 07:41:23;;;;;;;14.80;7.90;;;;;;;28.47;47.82;100517.79;130036;1270;116398;-62
2023/07/10 07:44:26;;;;;;;12.20;8.30;;;;;;;29.01;46.87;100522.27;130402;1256;114737;-67
2023/07/10 07:47:28;;;;;;;9.80;8.50;;;;;;;29.17;45.44;100519.58;130407;1255;115175;-62
2023/07/10 07:50:31;;;;;;;9.30;8.20;;;;;;;29.30;45.28;100518.45;130538;1256;114772;-63
2023/07/10 07:53:35;;;;;;;10.00;8.80;;;;;;;29.45;44.87;100508.50;130378;1266;114766;-62
2023/07/10 07:56:38;;;;;;;14.90;7.70;;;;;;;29.56;44.32;100502.46;130403;1255;120515;-65
2023/07/10 07:59:40;;;;;;;10.50;7.70;;;;;;;29.68;43.70;100500.04;130326;1273;114744;-68
2023/07/10 08:02:42;;;;;;;17.70;12.20;;;;;;;29.96;43.64;100494.26;130246;1256;115424;-67
2023/07/10 08:05:44;;;;;;;13.70;8.90;;;;;;;30.39;43.08;100493.75;130100;1259;114775;-65
2023/07/10 08:08:47;;;;;;;9.30;7.90;;;;;;;30.85;42.80;100490.71;129574;1255;114975;-68
2023/07/10 08:11:49;;;;;;;8.10;7.30;;;;;;;31.27;42.43;100487.95;130252;1269;115074;-68
2023/07/10 08:14:51;;;;;;;12.70;8.10;;;;;;;31.72;42.19;100493.21;130203;1256;114770;-67
2023/07/10 08:17:53;;;;;;;10.40;8.10;;;;;;;32.07;41.59;100492.42;130024;1254;120504;-68
2023/07/10 08:21:05;;;;;;;8.40;7.50;;;;;;;32.32;40.66;100488.88;130108;1254;115156;-69
2023/07/10 08:24:08;;;;;;;8.50;6.50;;;;;;;32.52;40.12;100488.84;129857;1260;114831;-68
2023/07/10 08:27:10;;;;;;;8.70;7.80;;;;;;;32.63;40.04;100486.98;130241;1254;115135;-68
2023/07/10 08:30:14;;;;;;;9.00;6.90;;;;;;;32.90;39.90;100487.89;130189;1275;115189;-68
2023/07/10 08:33:16;;;;;;;;;;;;;;;33.22;39.56;100487.44;129915;1258;114849;-65
2023/07/10 08:36:18;;;;;;;8.90;7.00;;;;;;;33.54;39.16;100493.26;130177;1257;116226;-70
2023/07/10 08:39:23;;;;;;;9.30;7.20;;;;;;;33.99;38.72;100494.56;129919;1255;114788;-65
2023/07/10 08:42:29;;;;;;;11.80;7.50;;;;;;;34.18;38.21;100498.63;129928;1254;115066;-71
2023/07/10 08:45:37;;;;;;;11.30;7.00;;;;;;;34.16;37.63;100505.42;130015;1254;114693;-67
2023/07/10 08:48:59;;;;;;;12.80;7.40;;;;;;;34.07;37.31;100507.11;129827;1254;114800;-69
2023/07/10 08:52:12;;;;;;;9.40;6.90;;;;;;;33.94;37.30;100508.09;129940;1268;114763;-72
2023/07/10 08:55:22;;;;;;;9.90;7.30;;;;;;;33.79;36.70;100514.97;129644;1262;119264;-68
2023/07/10 08:58:28;;;;;;;9.40;7.00;;;;;;;33.50;36.36;100511.88;130124;1257;114699;-68
2023/07/10 09:01:35;;;;;;;11.10;7.40;;;;;;;33.21;36.12;100513.23;129723;1262;114691;-69
2023/07/10 09:04:42;;;;;;;8.10;7.30;;;;;;;32.91;36.68;100517.19;129925;1261;116554;-69
2023/07/10 09:07:45;;;;;;;17.50;7.30;;;;;;;32.72;36.48;100519.27;130337;1262;114775;-70
2023/07/10 09:10:50;;;;;;;11.00;7.00;;;;;;;32.56;36.37;100522.85;130520;1256;114695;-72
2023/07/10 09:13:56;;;;;;;9.00;6.80;;;;;;;32.42;36.50;100530.38;129803;1275;114757;-69
2023/07/10 09:16:59;;;;;;;14.30;7.10;;;;;;;32.27;36.49;100536.23;129737;1258;115148;-67
2023/07/10 09:20:05;;;;;;;9.20;6.80;;;;;;;32.18;37.20;100544.91;129779;1275;114789;-69
2023/07/10 09:23:16;;;;;;;11.30;7.80;;;;;;;32.13;37.17;100552.59;129781;1270;114753;-69
2023/07/10 09:26:21;;;;;;;9.10;7.80;;;;;;;32.00;37.35;100561.77;129992;1254;119954;-66
2023/07/10 09:29:35;;;;;;;7.60;6.80;;;;;;;31.84;37.66;100571.11;130130;1260;115161;-66
2023/07/10 09:32:38;;;;;;;10.70;7.40;;;;;;;31.67;37.51;100574.12;130005;1254;114712;-64
2023/07/10 09:35:42;;;;;;;11.70;8.00;;;;;;;31.51;37.57;100574.66;130059;1262;114919;-64
2023/07/10 09:38:47;;;;;;;12.20;7.90;;;;;;;31.34;37.88;100570.44;129718;1261;114735;-65
2023/07/10 09:41:49;;;;;;;8.90;7.20;;;;;;;31.17;38.26;100575.09;130053;1276;120091;-61
2023/07/10 09:44:53;;;;;;;9.70;7.10;;;;;;;30.95;38.29;100576.98;130158;1276;115163;-62
2023/07/10 09:47:56;;;;;;;9.90;7.40;;;;;;;30.65;38.47;100579.20;130234;1256;115233;-63
2023/07/10 09:51:02;;;;;;;13.00;6.90;;;;;;;30.44;38.75;100582.04;130093;1270;114808;-69
2023/07/10 09:54:06;;;;;;;17.00;7.30;;;;;;;30.36;39.16;100578.61;130660;1257;114804;-70
2023/07/10 09:57:15;;;;;;;9.30;6.50;;;;;;;30.28;39.42;100569.36;130476;1256;120485;-70
2023/07/10 10:00:18;;;;;;;10.50;6.10;;;;;;;30.16;39.34;100558.77;130509;1256;114934;-72
2023/07/10 10:03:32;;;;;;;12.80;7.50;;;;;;;30.02;39.29;100557.14;130390;1260;115263;-71
2023/07/10 10:06:34;;;;;;;20.70;7.50;;;;;;;29.84;39.36;100552.32;130182;1263;115261;-70
2023/07/10 10:09:36;;;;;;;9.80;6.10;;;;;;;29.69;39.42;100549.79;130391;1266;115246;-71
2023/07/10 10:12:38;;;;;;;9.80;6.60;;;;;;;29.52;39.62;100543.73;130343;1272;114716;-70
2023/07/10 10:15:40;;;;;;;9.10;6.50;;;;;;;29.33;39.58;100534.67;130108;1260;119264;-71
2023/07/10 10:18:48;;;;;;;14.20;7.30;;;;;;;29.13;39.96;100522.63;130335;1256;114667;-70
2023/07/10 10:21:50;;;;;;;10.80;7.00;;;;;;;28.91;40.61;100497.88;130400;1273;114773;-63
2023/07/10 10:24:52;;;;;;;7.00;6.30;;;;;;;28.65;40.42;100453.89;130435;1276;114695;-62
2023/07/10 10:28:05;;;;;;;8.40;6.80;;;;;;;28.33;40.61;100404.94;129970;1270;115196;-63
2023/07/10 10:31:09;;;;;;;15.80;6.30;;;;;;;27.98;41.51;100342.48;129523;1276;115000;-61
2023/07/10 10:34:28;;;;;;;11.80;6.80;;;;;;;27.54;42.83;100307.55;129657;1260;119976;-62
2023/07/10 10:37:49;;;;;;;15.70;7.10;;;;;;;27.08;43.79;100319.17;130120;1273;115258;-61
2023/07/10 10:40:57;;;;;;;15.90;8.00;;;;;;;26.93;44.74;100337.64;130162;1256;115204;-62
2023/07/10 10:44:12;;;;;;;16.30;8.10;;;;;;;27.07;45.64;100344.50;129773;1261;114904;-63
2023/07/10 10:47:35;;;;;;;16.50;7.80;;;;;;;27.35;45.91;100356.98;129898;1262;114934;-71
2023/07/10 10:50:49;;;;;;;14.00;6.80;;;;;;;27.70;46.08;100368.11;130571;1257;120203;-68
2023/07/10 10:54:01;;;;;;;;;;;;;;;28.08;45.67;100381.91;130069;1254;114742;-65
2023/07/10 10:57:12;;;;;;;9.30;6.70;;;;;;;28.42;45.07;100405.24;129887;1256;114706;-65
2023/07/10 11:00:52;;;;;;;17.50;7.10;;;;;;;28.74;45.19;100416.82;130110;1264;114712;-66
2023/07/10 11:04:16;;;;;;;10.30;6.10;;;;;;;29.01;45.08;100422.96;130206;1275;114706;-64
2023/07/10 11:07:20;;;;;;;12.50;7.60;;;;;;;29.25;44.70;100425.98;129580;1262;119860;-64
2023/07/10 11:10:33;;;;;;;14.30;6.40;;;;;;;29.48;44.50;100426.77;129568;1265;114952;-63
2023/07/10 11:13:37;;;;;;;8.90;5.90;;;;;;;29.70;44.37;100426.52;129525;1265;114795;-64
2023/07/10 11:16:39;;;;;;;;;;;;;;;29.84;44.21;100419.37;129179;1265;114791;-63
2023/07/10 11:19:42;;;;;;;13.10;7.70;;;;;;;29.97;43.82;100410.90;129235;1284;114881;-63
2023/07/10 11:22:49;;;;;;;20.90;7.50;;;;;;;30.02;43.20;100408.30;129349;1284;114848;-64
2023/07/10 11:26:08;;;;;;;16.10;7.50;;;;;;;30.05;42.48;100396.27;129813;1263;115400;-64
2023/07/10 11:29:27;;;;;;;12.30;6.60;;;;;;;30.09;42.89;100387.09;129059;1264;114921;-62
2023/07/10 11:32:29;;;;;;;15.10;7.50;;;;;;;30.17;42.36;100383.14;129230;1278;114822;-62
2023/07/10 11:35:32;;;;;;;12.50;7.00;;;;;;;30.20;41.93;100374.65;129129;1265;115583;-64
2023/07/10 11:38:34;;;;;;;8.90;6.90;;;;;;;30.30;41.78;100372.50;129228;1262;114918;-63
2023/07/10 11:41:39;;;;;;;15.00;7.40;;;;;;;30.37;41.65;100369.17;129220;1284;114895;-64
2023/07/10 11:44:45;;;;;;;11.50;6.80;;;;;;;30.37;41.49;100360.02;129707;1260;114878;-64
2023/07/10 11:47:47;;;;;;;11.80;6.70;;;;;;;30.32;40.76;100347.20;129783;1260;114718;-63
2023/07/10 11:50:49;;;;;;;13.70;7.40;;;;;;;30.24;40.53;100343.09;130157;1268;114803;-65
2023/07/10 11:54:04;;;;;;;10.50;7.00;;;;;;;30.15;39.89;100338.36;130029;1276;114807;-63
2023/07/10 11:57:11;;;;;;;11.20;6.90;;;;;;;30.05;39.35;100331.26;130041;1257;114776;-62
2023/07/10 12:00:13;;;;;;;11.00;7.50;;;;;;;29.98;39.33;100328.11;130000;1257;114700;-63
2023/07/10 12:03:15;;;;;;;8.40;6.60;;;;;;;29.91;39.50;100327.50;130179;1254;114731;-63
2023/07/10 12:06:20;;;;;;;18.10;8.00;;;;;;;29.84;39.46;100327.11;130113;1256;114683;-62
2023/07/10 12:09:22;;;;;;;8.90;6.40;;;;;;;29.80;39.63;100337.02;130085;1256;114778;-64
2023/07/10 12:12:33;;;;;;;8.10;5.70;;;;;;;29.80;39.49;100337.41;130048;1257;114788;-63
2023/07/10 12:15:36;;;;;;;8.90;6.10;;;;;;;29.82;39.88;100343.30;129904;1257;114856;-63
2023/07/10 12:18:39;;;;;;;8.90;6.20;;;;;;;29.86;40.15;100345.61;130130;1257;114765;-63
2023/07/10 12:21:43;;;;;;;11.80;6.20;;;;;;;29.98;40.02;100347.66;130279;1256;114685;-64
2023/07/10 12:24:54;;;;;;;10.50;6.50;;;;;;;30.13;39.87;100344.45;130042;1254;114767;-63
2023/07/10 12:28:01;;;;;;;9.10;6.40;;;;;;;30.27;39.87;100349.79;129716;1265;119159;-65
2023/07/10 12:31:10;;;;;;;12.80;7.20;;;;;;;30.39;39.76;100359.52;129807;1262;115232;-64
2023/07/10 12:34:23;;;;;;;10.90;7.10;;;;;;;30.46;39.75;100368.79;129824;1260;115154;-65
2023/07/10 12:37:25;;;;;;;10.90;6.90;;;;;;;30.47;39.64;100380.83;130446;1254;115074;-66
2023/07/10 12:40:31;;;;;;;9.70;6.40;;;;;;;30.41;39.37;100400.51;130128;1260;114676;-64
2023/07/10 12:43:34;;;;;;;7.30;6.50;;;;;;;30.31;39.28;100393.80;129832;1254;119887;-69
2023/07/10 12:46:37;;;;;;;8.90;6.90;;;;;;;30.20;39.51;100385.84;129802;1254;115215;-72
2023/07/10 12:49:47;;;;;;;;;;;;;;;30.20;40.96;100389.58;130322;1275;114787;-65
2023/07/10 12:52:49;;;;;;;13.50;6.80;;;;;;;30.27;41.89;100385.27;129640;1275;114776;-65
2023/07/10 12:55:54;;;;;;;8.90;7.30;;;;;;;30.36;42.06;100376.73;130116;1259;115246;-69
2023/07/10 12:58:58;;;;;;;;;;;;;;;30.45;41.60;100362.23;129876;1259;119383;-64
2023/07/10 13:02:35;;;;;;;10.80;6.90;;;;;;;30.50;40.71;100353.67;129678;1276;116679;-64
2023/07/10 13:05:38;;;;;;;10.00;6.70;;;;;;;30.58;40.69;100341.90;129253;1262;114849;-62
2023/07/10 13:08:41;;;;;;;9.90;7.10;;;;;;;30.56;39.48;100324.63;129267;1267;114970;-66
2023/07/10 13:11:43;;;;;;;9.00;6.70;;;;;;;30.45;38.78;100308.10;129140;1285;115097;-67
2023/07/10 13:14:46;;;;;;;10.50;8.10;;;;;;;30.37;39.09;100303.69;129282;1285;114764;-63
2023/07/10 13:17:53;;;;;;;16.80;7.10;;;;;;;30.31;38.67;100303.91;129174;1265;115326;-65
2023/07/10 13:20:55;;;;;;;10.70;7.30;;;;;;;30.20;39.03;100296.31;129222;1269;115275;-65
2023/07/10 13:23:57;;;;;;;18.20;8.00;;;;;;;30.15;39.07;100289.05;129184;1284;114825;-64
2023/07/10 13:26:59;;;;;;;11.20;7.70;;;;;;;30.09;38.74;100286.48;129270;1276;114980;-65
2023/07/10 13:30:02;;;;;;;13.10;6.50;;;;;;;29.99;39.08;100284.77;129244;1277;114866;-68
2023/07/10 13:33:20;;;;;;;10.00;7.10;;;;;;;29.94;39.43;100289.15;129206;1278;115113;-69
2023/07/10 13:36:24;;;;;;;12.90;6.80;;;;;;;29.95;39.88;100287.98;129160;1262;119895;-62
2023/07/10 13:39:26;;;;;;;9.60;7.10;;;;;;;29.99;40.06;100283.38;129381;1266;115619;-68
2023/07/10 13:42:29;;;;;;;14.90;7.20;;;;;;;30.02;40.01;100282.67;129706;1260;115138;-65
2023/07/10 13:45:31;;;;;;;8.50;6.50;;;;;;;30.02;40.07;100276.81;130296;1260;114708;-70
2023/07/10 13:48:33;;;;;;;13.00;6.20;;;;;;;30.02;40.27;100281.36;130513;1275;114731;-70
2023/07/10 13:51:38;;;;;;;8.30;6.30;;;;;;;30.05;40.25;100287.91;130035;1276;114715;-71
2023/07/10 13:54:41;;;;;;;9.60;6.40;;;;;;;30.12;39.69;100290.96;129882;1262;119239;-69
2023/07/10 13:57:43;;;;;;;10.20;5.90;;;;;;;30.21;39.48;100304.65;130157;1257;114756;-67